Time;durP1;ratioP1;P1;durP2;ratioP2;P2;SDS_P1;SDS_P2;PMS_P1;PMS_P2;Temp;Humidity;BMP_temperature;BMP_pressure;BME280_temperature;BME280_humidity;BME280_pressure;Samples;Min_cycle;Max_cycle;Signal;HPM_P1;HPM_P2
2023/02/24 00:03:36;;;;;;;9.85;2.63;;;3.10;92.70;;;;;;19985024;29;20046;-78
2023/02/24 00:13:59;;;;;;;5.20;1.85;;;3.20;93.30;;;;;;20013942;29;20046;-79
2023/02/24 00:24:22;;;;;;;3.75;2.17;;;3.10;90.20;;;;;;20073626;29;20055;-78
2023/02/24 00:35:01;;;;;;;3.63;1.63;;;3.10;87.00;;;;;;20015595;29;20095;-78
2023/02/24 00:55:40;;;;;;;3.35;1.42;;;2.80;58.80;;;;;;20077952;23;20058;-79
2023/02/24 01:06:20;;;;;;;3.35;2.22;;;2.70;60.40;;;;;;19963469;29;20046;-79
2023/02/24 01:16:53;;;;;;;4.38;1.40;;;2.60;64.60;;;;;;19941110;29;20049;-79
2023/02/24 01:38:48;;;;;;;2.63;1.02;;;2.70;86.70;;;;;;20009626;29;20057;-79
2023/02/24 01:49:40;;;;;;;2.65;1.13;;;2.70;89.80;;;;;;20011807;29;20094;-79
2023/02/24 09:44:47;;;;;;;4.10;1.67;;;5.60;98.90;;;;;;20392628;24;20561;-80
2023/02/24 09:55:17;;;;;;;13.68;2.30;;;5.60;99.90;;;;;;20142140;29;20057;-80
2023/02/24 10:05:37;;;;;;;6.18;2.42;;;5.70;99.90;;;;;;20037488;23;20046;-80
2023/02/24 10:16:22;;;;;;;7.07;2.83;;;5.60;99.90;;;;;;20022683;29;20054;-81
2023/02/24 10:26:30;;;;;;;4.93;1.88;;;5.60;99.90;;;;;;20047062;29;20087;-80
2023/02/24 10:36:34;;;;;;;5.38;1.60;;;5.80;99.90;;;;;;20041036;29;20062;-79
2023/02/24 10:46:40;;;;;;;4.38;2.03;;;5.80;99.90;;;;;;20051654;29;20041;-80
2023/02/24 10:57:46;;;;;;;4.55;2.30;;;6.00;99.90;;;;;;20196254;23;20090;-80
2023/02/24 11:08:43;;;;;;;5.75;2.35;;;6.10;99.90;;;;;;20758299;24;20413;-80
2023/02/24 11:19:06;;;;;;;11.23;2.63;;;6.30;99.90;;;;;;20151693;29;20045;-80
2023/02/24 11:29:49;;;;;;;4.97;2.40;;;6.30;99.90;;;;;;20030031;29;20036;-80
2023/02/24 11:40:22;;;;;;;6.88;2.65;;;6.40;99.90;;;;;;20036090;29;20049;-80
2023/02/24 11:51:00;;;;;;;5.55;2.65;;;6.60;99.90;;;;;;20034397;29;20045;-80
2023/02/24 12:01:28;;;;;;;9.70;2.95;;;6.90;99.90;;;;;;20052500;29;20047;-80
2023/02/24 12:33:08;;;;;;;8.20;2.13;;;8.50;99.90;;;;;;11288117;23;20054;-77
2023/02/24 12:43:27;;;;;;;5.33;1.97;;;8.10;99.90;;;;;;20025569;29;20054;-77
2023/02/24 12:53:48;;;;;;;4.10;2.10;;;8.00;99.90;;;;;;20021865;29;20308;-77
2023/02/24 13:04:10;;;;;;;5.30;1.13;;;8.10;99.90;;;;;;20047160;29;20054;-78
2023/02/24 13:25:02;;;;;;;6.10;1.50;;;8.20;71.60;;;;;;20287822;24;20131;-78
2023/02/24 13:35:15;;;;;;;7.13;2.22;;;8.50;54.00;;;;;;20181369;24;20171;-77
2023/02/24 13:45:20;;;;;;;12.48;2.15;;;8.50;65.00;;;;;;20150962;29;20037;-77
2023/02/24 13:55:59;;;;;;;2.78;1.13;;;8.80;55.50;;;;;;20145210;29;20117;-77
2023/02/24 14:06:02;;;;;;;2.33;0.88;;;8.30;45.30;;;;;;20107991;29;20047;-80
2023/02/24 14:26:19;;;;;;;3.55;1.45;;;8.00;40.60;;;;;;19442005;23;20438;-41
2023/02/24 15:27:23;;;;;;;0.98;0.40;;;7.60;25.90;;;;;;23490795;23;20046;-79
2023/02/24 15:37:43;;;;;;;2.85;0.70;;;7.50;28.20;;;;;;20136053;29;20094;-81
2023/02/24 15:47:53;;;;;;;6.82;1.60;;;7.20;40.40;;;;;;20129778;29;20058;-79
2023/02/24 15:58:00;;;;;;;5.40;0.95;;;7.40;50.20;;;;;;20064827;29;20082;-80
2023/02/24 16:08:02;;;;;;;5.23;1.00;;;7.30;50.90;;;;;;20136762;29;20466;-80
2023/02/24 16:18:12;;;;;;;0.93;0.22;;;6.80;50.10;;;;;;20159608;29;20142;-80
2023/02/24 16:28:15;;;;;;;7.40;0.47;;;6.30;58.40;;;;;;20109031;29;20041;-80
2023/02/24 16:38:20;;;;;;;1.48;0.40;;;6.20;65.10;;;;;;20106851;29;20139;-80
2023/02/24 16:48:25;;;;;;;2.47;0.77;;;6.30;72.10;;;;;;20104298;29;20038;-80
2023/02/24 16:58:26;;;;;;;3.97;2.03;;;6.10;60.90;;;;;;20111665;29;20060;-81
2023/02/24 17:08:31;;;;;;;4.20;0.95;;;6.10;58.70;;;;;;20141882;29;20124;-78
2023/02/24 17:18:55;;;;;;;3.40;0.90;;;6.00;58.10;;;;;;20046657;29;20069;-78
2023/02/24 17:29:17;;;;;;;4.40;1.70;;;6.00;65.20;;;;;;20056150;23;20046;-77
2023/02/24 17:39:18;;;;;;;3.67;1.45;;;6.00;67.00;;;;;;20089579;29;20049;-77
2023/02/24 17:49:19;;;;;;;5.57;1.95;;;6.00;56.70;;;;;;20100874;29;20044;-77
2023/02/24 17:59:20;;;;;;;5.72;1.60;;;6.10;50.20;;;;;;20077420;29;20046;-77
2023/02/24 18:09:22;;;;;;;8.90;2.10;;;5.90;45.50;;;;;;20050192;24;20440;-77
2023/02/24 18:19:25;;;;;;;8.63;1.85;;;5.90;40.50;;;;;;19974897;29;20045;-78
2023/02/24 18:29:30;;;;;;;3.08;1.67;;;5.90;37.20;;;;;;19939722;29;20045;-77
2023/02/24 18:39:34;;;;;;;7.00;1.40;;;5.90;34.40;;;;;;19986654;29;20054;-77
2023/02/24 18:49:37;;;;;;;9.82;2.78;;;5.90;26.80;;;;;;20006515;29;20057;-78
2023/02/24 18:59:40;;;;;;;10.60;2.28;;;5.80;26.50;;;;;;19984849;29;20039;-77
2023/02/24 19:19:58;;;;;;;10.00;2.33;;;5.70;31.90;;;;;;12282430;23;20078;-78
2023/02/24 19:30:01;;;;;;;16.98;2.55;;;5.80;30.30;;;;;;20119618;29;20538;-78
2023/02/24 19:40:07;;;;;;;10.10;2.85;;;5.80;25.30;;;;;;20077462;29;20049;-78
2023/02/24 19:50:17;;;;;;;7.32;1.90;;;5.60;26.20;;;;;;20107999;29;20410;-78
2023/02/24 20:00:26;;;;;;;2.95;1.40;;;5.40;28.80;;;;;;20067951;29;20045;-78
2023/02/24 20:11:12;;;;;;;11.23;1.63;;;5.30;29.90;;;;;;20085391;29;20041;-79
2023/02/24 20:22:03;;;;;;;3.67;1.67;;;5.40;28.70;;;;;;20218373;29;20033;-78
2023/02/24 20:32:40;;;;;;;15.18;2.60;;;5.30;27.00;;;;;;20202949;29;20041;-78
2023/02/24 20:43:07;;;;;;;6.88;2.08;;;5.20;29.80;;;;;;20196514;29;20049;-78
2023/02/24 20:53:44;;;;;;;4.68;1.50;;;5.10;38.30;;;;;;20200051;29;20033;-80
2023/02/24 21:04:32;;;;;;;3.38;1.50;;;5.00;42.60;;;;;;20176198;29;20056;-79
2023/02/24 22:17:26;;;;;;;1.30;0.77;;;4.80;39.70;;;;;;25844482;22;1266329;-42
2023/02/24 22:27:30;;;;;;;11.23;2.40;;;4.90;33.60;;;;;;25811713;22;20417;-43
2023/02/24 22:37:32;;;;;;;5.80;1.23;;;4.80;30.00;;;;;;25829059;22;20022;-43
2023/02/24 22:47:33;;;;;;;3.17;1.13;;;4.70;26.20;;;;;;25828426;22;20020;-43
2023/02/24 22:57:34;;;;;;;6.45;1.75;;;4.60;25.90;;;;;;25694799;22;20020;-43
2023/02/24 23:07:36;;;;;;;14.85;2.60;;;4.50;28.00;;;;;;25659740;23;20009;-42
2023/02/24 23:17:37;;;;;;;2.72;1.08;;;4.50;31.30;;;;;;25761989;23;20026;-43
2023/02/24 23:27:39;;;;;;;2.70;1.35;;;4.60;29.70;;;;;;25757764;23;20012;-42
2023/02/24 23:37:40;;;;;;;5.00;1.60;;;4.60;31.30;;;;;;25780747;23;20043;-42
2023/02/24 23:47:42;;;;;;;7.85;0.90;;;4.80;32.00;;;;;;25784317;23;20018;-43
2023/02/24 23:57:43;;;;;;;3.28;0.40;;;4.90;19.10;;;;;;25781263;23;20074;-42
